Time;durP1;ratioP1;P1;durP2;ratioP2;P2;SDS_P1;SDS_P2;PMS_P1;PMS_P2;Temp;Humidity;BMP_temperature;BMP_pressure;BME280_temperature;BME280_humidity;BME280_pressure;Samples;Min_cycle;Max_cycle;Signal;HPM_P1;HPM_P2
2023/09/12 00:02:05;;;;;;;15.15;12.88;;;18.00;69.50;;;;;;5031801;28;20029;-56
2023/09/12 00:04:30;;;;;;;14.20;11.77;;;18.00;69.70;;;;;;5031606;28;20036;-56
2023/09/12 00:06:56;;;;;;;15.27;12.20;;;18.00;69.60;;;;;;5031558;28;20037;-56
2023/09/12 00:09:22;;;;;;;16.83;12.55;;;18.00;69.70;;;;;;5031916;28;20029;-56
2023/09/12 00:11:47;;;;;;;15.73;12.25;;;18.00;69.80;;;;;;5031410;28;20057;-54
2023/09/12 00:14:17;;;;;;;14.02;11.80;;;18.00;69.80;;;;;;5031685;28;20057;-57
2023/09/12 00:16:43;;;;;;;14.40;11.50;;;18.10;70.10;;;;;;5031352;28;20025;-56
2023/09/12 00:19:08;;;;;;;13.02;10.95;;;18.10;70.20;;;;;;5031469;28;20401;-56
2023/09/12 00:21:34;;;;;;;14.90;11.45;;;18.10;70.10;;;;;;5031415;28;20393;-53
2023/09/12 00:24:00;;;;;;;14.35;10.95;;;18.10;69.90;;;;;;5033117;28;20025;-56
2023/09/12 00:26:27;;;;;;;17.95;11.73;;;18.10;69.90;;;;;;5035352;28;20026;-55
2023/09/12 00:28:52;;;;;;;16.48;11.20;;;18.10;70.00;;;;;;5035283;28;20029;-57
2023/09/12 00:31:18;;;;;;;13.70;10.15;;;18.10;70.10;;;;;;5035329;28;20097;-56
2023/09/12 00:33:44;;;;;;;13.57;11.13;;;18.10;70.10;;;;;;5035121;28;20385;-56
2023/09/12 00:36:09;;;;;;;13.52;11.25;;;18.10;70.10;;;;;;5017367;28;20120;-55
2023/09/12 00:38:35;;;;;;;11.80;10.25;;;18.10;69.80;;;;;;5035142;28;20057;-55
2023/09/12 00:41:00;;;;;;;12.07;10.38;;;18.20;69.70;;;;;;5035057;28;20033;-56
2023/09/12 00:43:26;;;;;;;14.25;10.38;;;18.20;69.70;;;;;;5035202;28;20405;-56
2023/09/12 00:45:52;;;;;;;13.43;11.80;;;18.20;69.60;;;;;;5034950;28;20492;-56
2023/09/12 00:48:20;;;;;;;13.90;11.20;;;18.20;69.70;;;;;;5035247;28;20034;-56
2023/09/12 00:50:47;;;;;;;14.98;12.38;;;18.20;69.70;;;;;;5035413;28;20025;-54
2023/09/12 00:53:13;;;;;;;14.20;11.30;;;18.20;69.80;;;;;;5035006;28;20128;-55
2023/09/12 00:55:45;;;;;;;13.63;11.10;;;18.20;69.70;;;;;;5017274;28;20088;-57
2023/09/12 00:58:11;;;;;;;15.32;12.50;;;18.20;69.80;;;;;;5034883;28;20030;-57
2023/09/12 01:00:36;;;;;;;15.82;11.65;;;18.20;69.80;;;;;;5034697;28;20087;-56
2023/09/12 01:03:03;;;;;;;16.58;12.85;;;18.10;69.90;;;;;;5034829;28;20104;-55
2023/09/12 01:05:29;;;;;;;17.08;12.80;;;18.10;69.90;;;;;;5034591;28;20385;-56
2023/09/12 01:07:55;;;;;;;16.52;11.73;;;18.10;70.10;;;;;;5034645;28;20029;-56
2023/09/12 01:10:21;;;;;;;16.15;11.90;;;18.00;70.20;;;;;;5034407;28;20040;-55
2023/09/12 01:12:46;;;;;;;15.90;12.45;;;18.00;70.10;;;;;;5034379;28;20057;-56
2023/09/12 01:15:16;;;;;;;16.15;12.80;;;18.00;70.20;;;;;;5034623;28;20036;-55
2023/09/12 01:17:43;;;;;;;16.38;12.98;;;17.90;70.10;;;;;;5034683;28;20025;-56
2023/09/12 01:20:14;;;;;;;15.20;12.73;;;18.00;70.30;;;;;;5034335;28;20032;-57
2023/09/12 01:22:42;;;;;;;16.75;13.25;;;17.90;70.20;;;;;;5016617;28;20500;-56
2023/09/12 01:25:26;;;;;;;15.40;12.88;;;17.90;70.30;;;;;;5034241;28;20029;-57
2023/09/12 01:27:53;;;;;;;16.63;13.52;;;17.90;70.20;;;;;;5034245;28;20025;-57
2023/09/12 01:30:22;;;;;;;20.70;15.38;;;17.90;70.20;;;;;;5034340;28;20426;-56
2023/09/12 01:32:49;;;;;;;18.60;14.73;;;17.90;70.70;;;;;;5034327;28;20037;-56
2023/09/12 01:35:15;;;;;;;19.75;15.38;;;17.90;70.00;;;;;;5033698;28;20021;-57
2023/09/12 01:37:40;;;;;;;20.02;15.90;;;17.90;70.00;;;;;;5033964;28;20545;-56
2023/09/12 01:40:07;;;;;;;21.70;14.77;;;17.90;69.80;;;;;;5034149;28;20497;-55
2023/09/12 01:42:44;;;;;;;20.60;15.73;;;17.90;69.80;;;;;;5034302;28;20431;-57
2023/09/12 01:45:13;;;;;;;26.20;17.80;;;17.90;69.60;;;;;;5034074;28;20029;-56
2023/09/12 01:47:41;;;;;;;22.40;17.13;;;17.90;69.40;;;;;;5033851;28;20044;-57
2023/09/12 01:50:09;;;;;;;21.42;17.65;;;17.90;69.40;;;;;;5033971;28;20108;-55
2023/09/12 01:52:36;;;;;;;20.90;17.25;;;18.00;69.10;;;;;;5034060;28;20100;-57
2023/09/12 01:55:03;;;;;;;19.92;16.58;;;17.90;68.90;;;;;;5033667;28;20037;-57
2023/09/12 01:57:29;;;;;;;21.27;17.40;;;18.00;68.90;;;;;;5034019;28;20026;-57
2023/09/12 01:59:55;;;;;;;23.17;17.30;;;18.00;68.80;;;;;;5033803;28;20480;-57
2023/09/12 02:02:20;;;;;;;24.60;17.05;;;18.00;68.80;;;;;;5033926;28;20107;-56
2023/09/12 02:05:18;;;;;;;19.48;15.50;;;18.00;68.80;;;;;;5033583;28;20478;-57
2023/09/12 02:07:44;;;;;;;18.15;15.00;;;18.00;68.80;;;;;;5015015;28;20036;-58
2023/09/12 02:10:10;;;;;;;19.48;15.38;;;17.90;68.80;;;;;;5033298;28;20070;-57
2023/09/12 02:12:36;;;;;;;20.65;15.77;;;17.90;69.00;;;;;;5033394;28;20385;-57
2023/09/12 02:15:02;;;;;;;20.80;15.88;;;17.90;69.10;;;;;;5033408;28;20028;-57
2023/09/12 02:17:27;;;;;;;18.58;15.02;;;17.90;69.20;;;;;;5033639;28;20091;-57
2023/09/12 02:19:53;;;;;;;21.20;14.73;;;17.90;69.10;;;;;;5033199;28;20120;-57
2023/09/12 02:22:18;;;;;;;19.00;15.35;;;17.90;69.30;;;;;;5033222;28;20469;-56
2023/09/12 02:24:44;;;;;;;17.33;14.57;;;17.90;69.50;;;;;;5033413;28;20025;-57
2023/09/12 02:27:10;;;;;;;20.60;15.80;;;17.90;69.40;;;;;;5033142;28;20080;-56
2023/09/12 02:29:36;;;;;;;18.33;13.95;;;17.90;69.50;;;;;;5032977;28;20462;-57
2023/09/12 02:32:02;;;;;;;17.27;13.77;;;17.90;69.50;;;;;;5015293;28;20028;-56
2023/09/12 02:34:28;;;;;;;16.45;14.20;;;17.90;69.50;;;;;;5033209;28;20032;-57
2023/09/12 02:36:54;;;;;;;17.83;13.23;;;17.90;69.60;;;;;;5032927;28;20026;-57
2023/09/12 02:39:19;;;;;;;16.15;13.25;;;17.90;69.70;;;;;;5032961;28;20029;-56
2023/09/12 02:41:45;;;;;;;16.58;13.07;;;17.80;69.50;;;;;;5032773;28;20032;-56
2023/09/12 02:44:10;;;;;;;20.00;13.77;;;17.80;69.40;;;;;;5033047;28;20029;-55
2023/09/12 02:46:36;;;;;;;16.02;12.57;;;17.80;69.40;;;;;;5031829;28;20104;-57
2023/09/12 02:49:02;;;;;;;16.33;13.07;;;17.80;69.20;;;;;;5032613;28;20433;-56
2023/09/12 02:51:28;;;;;;;17.05;12.80;;;17.70;69.30;;;;;;5032834;28;20092;-57
2023/09/12 02:53:54;;;;;;;15.85;12.70;;;17.70;69.40;;;;;;5032423;28;20080;-57
2023/09/12 02:56:20;;;;;;;16.85;12.60;;;17.70;69.50;;;;;;5032501;28;20060;-56
2023/09/12 02:58:49;;;;;;;16.15;12.93;;;17.70;69.50;;;;;;5032742;28;20055;-56
2023/09/12 03:01:19;;;;;;;15.80;12.57;;;17.70;69.60;;;;;;5032481;28;20022;-57
2023/09/12 03:03:49;;;;;;;16.50;12.77;;;17.60;69.60;;;;;;5032529;28;20389;-57
2023/09/12 03:06:16;;;;;;;15.63;12.35;;;17.60;69.40;;;;;;5032246;28;20030;-57
2023/09/12 03:08:43;;;;;;;14.70;11.35;;;17.60;69.50;;;;;;5032256;28;20045;-57
2023/09/12 03:11:09;;;;;;;14.40;12.27;;;17.50;69.60;;;;;;5032408;28;20503;-57
2023/09/12 03:13:36;;;;;;;15.10;12.32;;;17.50;69.50;;;;;;5032595;28;20021;-56
2023/09/12 03:16:02;;;;;;;14.57;12.02;;;17.40;69.50;;;;;;5032287;28;20029;-57
2023/09/12 03:18:28;;;;;;;14.98;12.30;;;17.40;69.20;;;;;;5032491;28;20052;-57
2023/09/12 03:20:53;;;;;;;13.85;11.65;;;17.40;69.40;;;;;;5032006;28;20493;-55
2023/09/12 03:23:20;;;;;;;15.57;12.43;;;17.40;69.40;;;;;;5032045;28;20034;-57
2023/09/12 03:25:46;;;;;;;17.92;13.55;;;17.40;70.20;;;;;;5031958;28;20025;-56
2023/09/12 03:28:11;;;;;;;16.80;13.27;;;17.40;69.60;;;;;;5032221;28;20029;-56
2023/09/12 03:30:38;;;;;;;16.27;13.48;;;17.30;69.60;;;;;;5031996;28;20033;-56
2023/09/12 03:33:05;;;;;;;18.58;13.38;;;17.30;69.80;;;;;;5032159;28;20021;-57
2023/09/12 03:35:34;;;;;;;15.73;12.68;;;17.20;69.80;;;;;;5031974;28;20397;-55
2023/09/12 03:38:00;;;;;;;16.10;13.02;;;17.20;69.90;;;;;;5032392;28;20053;-57
2023/09/12 03:40:29;;;;;;;14.75;11.63;;;17.20;70.00;;;;;;5031964;28;20064;-56
2023/09/12 03:42:55;;;;;;;14.48;11.52;;;17.20;70.30;;;;;;5031911;28;20049;-56
2023/09/12 03:45:20;;;;;;;15.20;12.30;;;17.20;70.20;;;;;;5031987;28;20061;-55
2023/09/12 03:47:46;;;;;;;16.00;12.68;;;17.20;70.10;;;;;;5031942;28;20025;-56
2023/09/12 03:50:13;;;;;;;15.10;12.13;;;17.30;70.20;;;;;;5031772;28;20431;-53
2023/09/12 03:52:39;;;;;;;14.75;11.60;;;17.20;70.10;;;;;;5031959;28;20064;-57
2023/09/12 03:55:05;;;;;;;16.15;12.20;;;17.20;69.90;;;;;;5030939;28;20092;-55
2023/09/12 03:57:31;;;;;;;18.08;12.43;;;17.20;70.10;;;;;;5031079;28;20025;-57
2023/09/12 03:59:57;;;;;;;14.52;12.23;;;17.30;70.20;;;;;;5031479;28;20038;-56
2023/09/12 04:02:22;;;;;;;16.75;11.20;;;17.30;70.40;;;;;;5031498;28;20045;-56
2023/09/12 04:04:48;;;;;;;21.13;15.02;;;17.30;70.60;;;;;;5031613;28;20022;-56
2023/09/12 04:07:14;;;;;;;15.40;12.95;;;17.30;70.60;;;;;;5031667;28;20084;-57
2023/09/12 04:09:39;;;;;;;16.33;11.73;;;17.40;70.70;;;;;;5031456;28;20108;-57
2023/09/12 04:12:06;;;;;;;15.77;11.40;;;17.40;70.70;;;;;;5031667;28;20025;-57
2023/09/12 04:14:32;;;;;;;16.33;11.40;;;17.50;70.80;;;;;;5031479;28;20497;-56
2023/09/12 04:16:58;;;;;;;12.77;10.18;;;17.50;71.00;;;;;;5031423;28;20029;-57
2023/09/12 04:19:25;;;;;;;16.55;10.50;;;17.60;71.00;;;;;;5031558;28;20053;-56
2023/09/12 04:21:50;;;;;;;12.50;10.23;;;17.60;70.70;;;;;;5031174;28;20034;-56
2023/09/12 04:24:17;;;;;;;14.10;11.43;;;17.60;70.40;;;;;;5031220;28;20267;-57
2023/09/12 04:26:43;;;;;;;17.05;11.50;;;17.70;70.60;;;;;;5013012;28;20112;-57
2023/09/12 04:29:09;;;;;;;16.35;10.95;;;17.80;70.60;;;;;;5031162;28;20076;-57
2023/09/12 04:31:35;;;;;;;17.92;10.48;;;17.80;70.10;;;;;;5030451;28;20026;-56
2023/09/12 04:34:01;;;;;;;11.02;9.48;;;17.80;69.70;;;;;;5031318;28;20026;-57
2023/09/12 04:36:26;;;;;;;12.70;10.00;;;17.90;68.60;;;;;;5031867;28;20025;-57
2023/09/12 04:38:52;;;;;;;15.05;11.10;;;18.00;68.10;;;;;;5031247;28;20026;-53
2023/09/12 04:41:17;;;;;;;15.00;9.52;;;18.00;67.80;;;;;;5031284;28;20041;-57
2023/09/12 04:43:47;;;;;;;18.77;11.07;;;18.10;67.30;;;;;;5031512;28;20381;-57
2023/09/12 04:46:12;;;;;;;20.42;11.45;;;18.20;67.20;;;;;;5031110;28;20029;-55
2023/09/12 04:48:38;;;;;;;13.90;10.43;;;18.30;67.10;;;;;;5031265;28;20021;-56
2023/09/12 04:51:04;;;;;;;17.30;10.68;;;18.30;67.20;;;;;;5031223;28;20034;-57
2023/09/12 04:53:34;;;;;;;16.20;10.45;;;18.40;67.30;;;;;;5030991;28;20028;-56
2023/09/12 04:56:03;;;;;;;16.98;10.02;;;18.50;67.40;;;;;;5031176;28;20029;-57
2023/09/12 04:58:29;;;;;;;15.15;10.93;;;18.60;67.70;;;;;;5030343;28;20029;-58
2023/09/12 05:00:55;;;;;;;14.70;11.20;;;18.60;68.20;;;;;;5028954;28;20040;-56
2023/09/12 05:03:22;;;;;;;14.15;11.35;;;18.70;68.60;;;;;;5028580;28;20026;-56
2023/09/12 05:05:48;;;;;;;15.27;11.40;;;18.80;69.30;;;;;;5030087;28;20034;-57
2023/09/12 05:08:14;;;;;;;18.80;11.13;;;18.80;69.60;;;;;;5030711;28;20489;-55
2023/09/12 05:10:39;;;;;;;16.95;13.18;;;18.90;70.00;;;;;;5032702;28;20025;-57
2023/09/12 05:13:05;;;;;;;13.57;11.48;;;19.00;70.50;;;;;;5016572;28;20021;-56
2023/09/12 05:15:31;;;;;;;12.35;10.82;;;19.10;71.10;;;;;;5034062;28;20021;-55
2023/09/12 05:17:57;;;;;;;14.73;12.27;;;19.20;71.10;;;;;;5033787;28;20485;-57
2023/09/12 05:20:22;;;;;;;14.10;11.75;;;19.20;71.10;;;;;;5033868;28;20492;-56
2023/09/12 05:22:48;;;;;;;16.20;12.75;;;19.30;71.10;;;;;;5033053;28;20021;-57
2023/09/12 05:25:14;;;;;;;16.40;12.35;;;19.30;71.40;;;;;;5032584;28;20030;-56
2023/09/12 05:27:40;;;;;;;15.55;13.00;;;19.40;71.70;;;;;;5032719;28;20072;-57
2023/09/12 05:30:06;;;;;;;13.93;12.43;;;19.30;72.00;;;;;;5033755;28;20028;-57
2023/09/12 05:32:31;;;;;;;15.30;12.82;;;19.40;72.40;;;;;;5033946;28;20049;-57
2023/09/12 05:34:57;;;;;;;13.73;12.18;;;19.40;72.80;;;;;;5034436;28;20065;-56
2023/09/12 05:37:22;;;;;;;16.88;13.20;;;19.50;73.10;;;;;;5034018;28;20025;-58
2023/09/12 05:39:48;;;;;;;16.80;13.98;;;19.50;73.30;;;;;;5033200;28;20029;-52
2023/09/12 05:42:20;;;;;;;15.48;12.60;;;19.60;73.40;;;;;;5032404;28;20125;-53
2023/09/12 05:44:46;;;;;;;16.23;13.40;;;19.60;73.50;;;;;;5032529;28;20104;-56
2023/09/12 05:47:12;;;;;;;17.02;14.02;;;19.60;73.80;;;;;;5033619;28;20105;-56
2023/09/12 05:49:37;;;;;;;17.75;13.52;;;19.70;74.00;;;;;;5033133;28;20030;-56
2023/09/12 05:52:03;;;;;;;17.15;14.32;;;19.70;74.20;;;;;;5032909;28;20112;-55
2023/09/12 05:54:29;;;;;;;16.75;13.88;;;19.80;74.20;;;;;;5033047;28;20041;-55
2023/09/12 05:56:54;;;;;;;18.13;13.50;;;19.80;74.30;;;;;;5033049;28;20030;-55
2023/09/12 05:59:20;;;;;;;17.52;14.48;;;19.90;74.10;;;;;;5031967;28;20516;-56
2023/09/12 06:01:46;;;;;;;19.92;15.20;;;19.90;74.00;;;;;;5030350;28;20034;-56
2023/09/12 06:04:11;;;;;;;17.67;13.68;;;19.90;74.10;;;;;;5032573;28;20444;-56
2023/09/12 06:06:38;;;;;;;19.15;14.77;;;20.00;74.10;;;;;;5033442;28;20171;-55
2023/09/12 06:09:04;;;;;;;18.38;14.75;;;20.00;73.80;;;;;;5032482;28;20053;-56
2023/09/12 06:11:31;;;;;;;18.88;16.13;;;20.10;73.70;;;;;;5032667;28;20503;-55
2023/09/12 06:13:56;;;;;;;21.67;16.83;;;20.20;73.40;;;;;;5032391;28;20050;-55
2023/09/12 06:16:22;;;;;;;22.20;16.95;;;20.20;73.50;;;;;;5031434;28;20057;-56
2023/09/12 06:18:48;;;;;;;21.58;18.73;;;20.20;73.60;;;;;;5032271;28;20025;-56
2023/09/12 06:21:14;;;;;;;22.52;17.77;;;20.30;74.00;;;;;;5032909;28;20056;-56
2023/09/12 06:23:40;;;;;;;27.52;21.08;;;20.30;74.10;;;;;;5033163;28;20037;-55
2023/09/12 06:26:05;;;;;;;22.73;19.23;;;20.40;74.40;;;;;;5033515;28;20032;-56
2023/09/12 06:28:31;;;;;;;22.05;18.45;;;20.40;74.00;;;;;;5032325;28;20448;-53
2023/09/12 06:30:58;;;;;;;22.38;17.88;;;20.50;73.40;;;;;;5032143;28;20029;-56
2023/09/12 06:33:25;;;;;;;26.00;21.15;;;20.60;73.30;;;;;;5031785;28;20377;-55
2023/09/12 06:35:52;;;;;;;21.45;19.27;;;20.60;73.20;;;;;;5031799;28;20087;-56
2023/09/12 06:38:19;;;;;;;18.98;16.85;;;20.70;73.30;;;;;;5032059;28;20037;-57
2023/09/12 06:40:47;;;;;;;23.83;19.30;;;20.80;72.30;;;;;;5032329;28;20449;-56
2023/09/12 06:43:13;;;;;;;22.73;17.38;;;20.80;72.30;;;;;;5032221;28;20091;-55
2023/09/12 06:45:40;;;;;;;20.50;18.38;;;20.80;72.10;;;;;;5032263;28;20029;-57
2023/09/12 06:48:05;;;;;;;24.20;20.45;;;20.90;72.20;;;;;;5031232;28;20025;-54
2023/09/12 06:50:31;;;;;;;22.45;19.17;;;20.90;72.00;;;;;;5031564;28;20036;-53
2023/09/12 06:52:57;;;;;;;21.88;19.08;;;20.90;72.00;;;;;;5031302;28;20064;-57
2023/09/12 06:55:22;;;;;;;22.60;19.80;;;21.00;72.10;;;;;;5031206;28;20050;-57
2023/09/12 06:57:48;;;;;;;22.70;19.98;;;21.00;71.60;;;;;;5031788;28;20435;-56
2023/09/12 07:00:14;;;;;;;25.75;22.27;;;21.00;71.00;;;;;;5031332;28;20033;-56
2023/09/12 07:02:39;;;;;;;28.92;24.75;;;21.10;71.00;;;;;;5032082;28;20029;-56
2023/09/12 07:05:05;;;;;;;30.83;27.55;;;21.10;70.90;;;;;;5032168;28;20091;-53
2023/09/12 07:07:32;;;;;;;29.23;25.92;;;21.10;70.90;;;;;;5031967;28;20040;-58
2023/09/12 07:09:59;;;;;;;23.92;21.33;;;21.10;70.80;;;;;;5032216;28;20028;-58
2023/09/12 07:12:25;;;;;;;21.60;19.20;;;21.20;70.50;;;;;;5032179;28;20033;-57
2023/09/12 07:14:51;;;;;;;24.83;19.30;;;21.20;70.20;;;;;;5032204;28;20027;-58
2023/09/12 07:17:17;;;;;;;19.63;17.38;;;21.20;70.20;;;;;;5032401;28;20038;-57
2023/09/12 07:19:43;;;;;;;23.90;18.08;;;21.20;70.00;;;;;;5032215;28;20037;-58
2023/09/12 07:22:09;;;;;;;19.25;15.27;;;21.30;69.80;;;;;;5032098;28;20025;-57
2023/09/12 07:24:34;;;;;;;23.08;15.48;;;21.30;69.30;;;;;;5032083;28;20493;-58
2023/09/12 07:27:00;;;;;;;15.73;13.73;;;21.30;69.20;;;;;;5031456;28;20053;-58
2023/09/12 07:29:27;;;;;;;14.50;12.75;;;21.30;69.00;;;;;;5030516;28;20052;-58
2023/09/12 07:31:53;;;;;;;16.02;12.85;;;21.40;68.80;;;;;;5030009;28;20022;-57
2023/09/12 07:34:20;;;;;;;16.85;13.27;;;21.40;68.80;;;;;;5030717;28;20426;-56
2023/09/12 07:36:46;;;;;;;15.20;13.60;;;21.40;68.60;;;;;;5030337;28;20057;-58
2023/09/12 07:39:11;;;;;;;14.90;12.98;;;21.40;68.60;;;;;;5029937;28;20054;-58
2023/09/12 07:41:37;;;;;;;13.25;11.85;;;21.40;68.70;;;;;;5013754;28;20034;-58
2023/09/12 07:44:07;;;;;;;13.93;11.35;;;21.50;68.80;;;;;;5030758;28;20032;-58
2023/09/12 07:46:33;;;;;;;13.50;11.35;;;21.50;68.20;;;;;;5030593;28;20120;-57
2023/09/12 07:48:59;;;;;;;13.18;10.57;;;21.50;68.00;;;;;;5030363;28;20124;-56
2023/09/12 07:51:25;;;;;;;14.20;10.50;;;21.50;67.50;;;;;;5031261;28;20136;-58
2023/09/12 07:53:50;;;;;;;13.73;11.35;;;21.50;67.10;;;;;;5030635;28;20046;-56
2023/09/12 07:56:16;;;;;;;14.88;11.48;;;21.50;67.30;;;;;;5031047;28;20037;-58
2023/09/12 07:58:42;;;;;;;15.13;10.65;;;21.50;67.20;;;;;;5031204;28;20033;-56
2023/09/12 08:01:09;;;;;;;12.20;10.70;;;21.50;67.10;;;;;;5031332;28;20397;-58
2023/09/12 08:03:36;;;;;;;12.85;10.05;;;21.50;67.10;;;;;;5031591;28;20087;-57
2023/09/12 08:06:02;;;;;;;12.95;9.80;;;21.60;67.20;;;;;;5031346;28;20511;-57
2023/09/12 08:08:29;;;;;;;11.82;9.73;;;21.60;67.40;;;;;;5013778;28;20041;-58
2023/09/12 08:10:54;;;;;;;12.27;9.65;;;21.60;67.30;;;;;;5031555;28;20022;-57
2023/09/12 08:13:20;;;;;;;12.18;10.38;;;21.60;67.20;;;;;;5031561;28;20032;-57
2023/09/12 08:15:46;;;;;;;17.20;11.10;;;21.60;66.90;;;;;;5031886;28;20068;-58
2023/09/12 08:18:12;;;;;;;12.60;10.07;;;21.60;66.90;;;;;;5031529;28;20025;-58
2023/09/12 08:20:38;;;;;;;12.70;11.05;;;21.60;67.30;;;;;;5031473;28;20539;-57
2023/09/12 08:23:04;;;;;;;12.35;10.68;;;21.60;67.40;;;;;;5013559;28;20053;-56
2023/09/12 08:25:29;;;;;;;12.95;10.85;;;21.70;67.70;;;;;;5031311;28;20519;-57
2023/09/12 08:27:55;;;;;;;14.98;10.98;;;21.70;67.80;;;;;;5031308;28;20033;-57
2023/09/12 08:30:21;;;;;;;12.73;11.02;;;21.70;67.80;;;;;;5007908;28;20532;-55
2023/09/12 08:32:47;;;;;;;12.73;10.70;;;21.70;67.90;;;;;;5001812;28;20453;-56
2023/09/12 08:35:13;;;;;;;13.10;10.45;;;21.70;68.10;;;;;;5009106;28;20057;-56
2023/09/12 08:37:40;;;;;;;12.90;10.45;;;21.70;68.20;;;;;;5008659;28;20030;-57
2023/09/12 08:40:08;;;;;;;11.98;10.05;;;21.70;68.50;;;;;;5009238;28;20092;-57
2023/09/12 08:42:43;;;;;;;13.35;9.88;;;21.70;68.70;;;;;;5007054;28;20038;-54
2023/09/12 08:45:16;;;;;;;12.00;9.80;;;21.60;68.50;;;;;;5010539;28;20025;-56
2023/09/12 08:47:44;;;;;;;11.77;9.85;;;21.60;68.80;;;;;;5014976;28;20433;-57
2023/09/12 08:50:16;;;;;;;10.98;9.68;;;21.60;68.80;;;;;;5014028;28;20084;-57
2023/09/12 08:52:43;;;;;;;9.82;8.82;;;21.60;68.80;;;;;;5013207;28;20056;-57
2023/09/12 08:55:10;;;;;;;11.65;9.05;;;21.60;68.70;;;;;;5000133;28;20379;-57
2023/09/12 08:57:41;;;;;;;10.23;8.52;;;21.60;68.00;;;;;;4994510;28;20034;-57
2023/09/12 09:00:14;;;;;;;8.75;7.55;;;21.60;67.70;;;;;;4994705;28;20019;-55
2023/09/12 09:02:43;;;;;;;10.18;7.65;;;21.60;67.40;;;;;;4994706;28;20034;-57
2023/09/12 09:05:11;;;;;;;8.30;6.32;;;21.60;66.70;;;;;;4994501;28;20376;-56
2023/09/12 09:07:39;;;;;;;8.10;6.20;;;21.60;65.90;;;;;;4994248;28;20062;-55
2023/09/12 09:10:16;;;;;;;8.07;6.35;;;21.60;65.50;;;;;;4994299;28;20478;-56
2023/09/12 09:12:45;;;;;;;6.18;5.53;;;21.60;65.10;;;;;;4994640;28;20050;-58
2023/09/12 09:15:29;;;;;;;6.32;5.45;;;21.60;64.90;;;;;;4994954;28;20482;-56
2023/09/12 09:17:56;;;;;;;7.43;5.65;;;21.60;65.50;;;;;;4990637;28;20025;-56
2023/09/12 09:20:30;;;;;;;7.22;5.97;;;21.60;64.90;;;;;;4991175;28;20030;-58
2023/09/12 09:23:08;;;;;;;7.28;5.85;;;21.60;65.10;;;;;;4994426;28;20034;-57
2023/09/12 09:25:37;;;;;;;7.47;6.35;;;21.70;65.10;;;;;;4994762;28;20409;-57
2023/09/12 09:28:04;;;;;;;7.60;6.03;;;21.60;65.00;;;;;;4994560;28;20477;-58
2023/09/12 09:30:40;;;;;;;7.70;5.90;;;21.60;65.10;;;;;;4994248;28;20038;-56
2023/09/12 09:33:06;;;;;;;6.28;5.55;;;21.70;65.10;;;;;;4994810;28;20356;-58
2023/09/12 09:35:32;;;;;;;5.50;4.72;;;21.60;65.00;;;;;;4994463;28;20026;-58
2023/09/12 09:37:58;;;;;;;7.47;5.82;;;21.70;64.60;;;;;;4994443;28;20023;-57
2023/09/12 09:40:24;;;;;;;5.88;5.28;;;21.70;64.70;;;;;;4994614;28;20027;-58
2023/09/12 09:42:59;;;;;;;5.97;4.97;;;21.70;65.00;;;;;;4994167;28;20037;-58
2023/09/12 09:45:24;;;;;;;5.97;5.10;;;21.70;64.80;;;;;;4994145;28;20027;-58
2023/09/12 09:47:51;;;;;;;7.53;4.80;;;21.70;64.60;;;;;;4993960;28;20117;-55
2023/09/12 09:50:17;;;;;;;6.63;5.55;;;21.70;64.50;;;;;;4994471;28;20041;-58
2023/09/12 09:52:45;;;;;;;6.15;5.28;;;21.70;64.40;;;;;;4993856;28;20026;-56
2023/09/12 09:55:15;;;;;;;5.90;5.25;;;21.70;64.70;;;;;;4994683;28;20086;-55
2023/09/12 09:57:40;;;;;;;6.57;5.22;;;21.70;64.70;;;;;;4993822;28;20022;-57
2023/09/12 10:00:08;;;;;;;8.57;5.40;;;21.70;65.00;;;;;;4990097;28;20041;-53
2023/09/12 10:02:36;;;;;;;6.63;4.97;;;21.70;64.70;;;;;;4990644;28;20035;-58
2023/09/12 10:05:04;;;;;;;6.30;4.60;;;21.70;64.30;;;;;;4997030;28;20030;-56
2023/09/12 10:07:33;;;;;;;7.18;5.32;;;21.80;63.90;;;;;;4985837;28;20030;-58
2023/09/12 10:10:03;;;;;;;6.55;4.68;;;21.80;63.50;;;;;;4990091;28;20030;-56
2023/09/12 10:12:31;;;;;;;5.32;4.43;;;21.80;63.00;;;;;;4996546;28;20030;-57
2023/09/12 10:15:00;;;;;;;4.35;3.70;;;21.80;62.10;;;;;;4992720;28;20039;-57
2023/09/12 10:17:35;;;;;;;5.60;4.25;;;21.80;62.00;;;;;;4991229;28;20026;-58
2023/09/12 10:20:09;;;;;;;4.82;4.35;;;21.80;61.30;;;;;;4986141;28;20385;-58
2023/09/12 10:22:43;;;;;;;5.43;4.28;;;21.80;60.90;;;;;;4984648;28;20046;-56
2023/09/12 10:25:11;;;;;;;5.85;4.50;;;21.80;60.60;;;;;;4989317;28;20479;-57
2023/09/12 10:27:37;;;;;;;5.15;3.95;;;21.80;60.60;;;;;;4990486;28;20505;-58
2023/09/12 10:30:04;;;;;;;5.47;4.00;;;21.80;60.40;;;;;;4991135;28;20536;-57
2023/09/12 10:32:32;;;;;;;6.43;4.32;;;21.80;60.20;;;;;;4991222;28;20105;-58
2023/09/12 10:34:59;;;;;;;5.20;4.30;;;21.90;60.40;;;;;;4991039;28;20034;-57
2023/09/12 10:37:27;;;;;;;5.50;4.43;;;21.90;59.80;;;;;;4990314;28;20034;-56
2023/09/12 10:39:53;;;;;;;4.72;4.18;;;21.90;59.90;;;;;;4990102;28;20030;-58
2023/09/12 10:42:20;;;;;;;4.78;4.25;;;21.90;59.40;;;;;;4986726;28;20034;-58
2023/09/12 10:44:46;;;;;;;6.15;4.65;;;22.00;58.90;;;;;;4983078;28;20081;-58
2023/09/12 10:47:13;;;;;;;4.53;3.95;;;22.00;58.70;;;;;;4979259;28;20523;-57
2023/09/12 10:49:43;;;;;;;6.88;4.25;;;22.00;58.60;;;;;;4989307;28;20101;-55
2023/09/12 10:52:08;;;;;;;4.93;4.15;;;22.00;58.90;;;;;;4989067;28;20056;-57
2023/09/12 10:54:40;;;;;;;6.10;4.05;;;22.00;59.10;;;;;;4999667;28;20128;-58
2023/09/12 10:57:07;;;;;;;5.13;3.92;;;22.00;58.60;;;;;;5007816;28;20026;-58
2023/09/12 10:59:36;;;;;;;5.97;4.30;;;22.00;58.40;;;;;;5009674;28;20039;-57
2023/09/12 11:02:31;;;;;;;4.72;4.05;;;22.10;58.60;;;;;;5009526;28;20372;-57
2023/09/12 11:04:58;;;;;;;6.07;3.92;;;22.10;58.70;;;;;;5008404;28;20072;-57
2023/09/12 11:07:43;;;;;;;4.80;4.20;;;22.10;58.80;;;;;;5008102;28;20034;-57
2023/09/12 11:10:15;;;;;;;5.65;4.35;;;22.10;58.30;;;;;;5008989;28;20084;-55
2023/09/12 11:12:42;;;;;;;4.95;4.13;;;22.10;58.60;;;;;;5009050;28;20037;-58
2023/09/12 11:15:10;;;;;;;5.97;4.68;;;22.10;58.80;;;;;;5009121;28;20080;-57
2023/09/12 11:17:43;;;;;;;6.68;4.43;;;22.10;58.90;;;;;;5009098;28;20080;-55
2023/09/12 11:20:12;;;;;;;4.78;3.90;;;22.10;58.90;;;;;;5008708;28;20119;-56
2023/09/12 11:22:44;;;;;;;5.18;4.47;;;22.10;59.00;;;;;;5007874;28;20025;-58
2023/09/12 11:25:26;;;;;;;5.93;4.25;;;22.10;59.40;;;;;;5007982;28;20591;-57
2023/09/12 11:27:52;;;;;;;6.13;4.63;;;22.20;59.10;;;;;;5005588;28;20406;-56
2023/09/12 11:30:34;;;;;;;5.85;4.35;;;22.10;58.70;;;;;;5009191;28;20030;-57
2023/09/12 11:33:04;;;;;;;6.10;4.35;;;22.10;58.40;;;;;;5008792;28;20381;-57
2023/09/12 11:35:35;;;;;;;6.28;4.18;;;22.10;58.40;;;;;;5009437;28;20022;-58
2023/09/12 11:38:02;;;;;;;5.03;4.45;;;22.10;58.60;;;;;;5008390;28;20372;-57
2023/09/12 11:40:33;;;;;;;5.78;4.57;;;22.10;58.90;;;;;;5008435;28;20167;-57
2023/09/12 11:43:00;;;;;;;4.88;3.90;;;22.20;59.10;;;;;;5006917;28;20029;-56
2023/09/12 11:45:27;;;;;;;7.20;4.55;;;22.10;59.30;;;;;;5007633;28;20498;-57
2023/09/12 11:47:53;;;;;;;4.78;4.20;;;22.20;59.30;;;;;;5008863;28;20041;-59
2023/09/12 11:50:33;;;;;;;6.22;4.63;;;22.20;59.50;;;;;;5008972;28;20034;-58
2023/09/12 11:53:10;;;;;;;6.57;4.40;;;22.20;59.80;;;;;;5008889;28;20026;-57
2023/09/12 11:55:37;;;;;;;5.18;3.97;;;22.20;60.30;;;;;;5004779;28;20149;-58
2023/09/12 11:58:04;;;;;;;6.70;4.68;;;22.20;59.50;;;;;;5007595;28;20474;-57
2023/09/12 12:00:29;;;;;;;6.85;4.32;;;22.10;59.70;;;;;;5008907;28;20033;-57
2023/09/12 12:02:55;;;;;;;5.15;4.50;;;22.20;59.70;;;;;;5008658;28;20081;-57
2023/09/12 12:05:22;;;;;;;5.90;4.55;;;22.20;59.50;;;;;;5009287;28;20109;-56
2023/09/12 12:07:49;;;;;;;6.65;4.43;;;22.20;59.20;;;;;;5008389;28;20038;-56
2023/09/12 12:10:16;;;;;;;5.15;4.55;;;22.20;59.30;;;;;;5008631;28;20033;-58
2023/09/12 12:12:45;;;;;;;5.32;4.47;;;22.20;59.40;;;;;;5008143;28;20037;-58
2023/09/12 12:15:11;;;;;;;5.38;4.60;;;22.20;59.20;;;;;;5007916;28;20026;-58
2023/09/12 12:17:40;;;;;;;6.05;4.80;;;22.20;59.30;;;;;;5008269;28;20448;-57
2023/09/12 12:20:09;;;;;;;5.35;4.40;;;22.20;59.60;;;;;;4997569;28;20087;-57
2023/09/12 12:22:37;;;;;;;5.97;4.18;;;22.20;60.10;;;;;;5007776;28;20462;-55
2023/09/12 12:25:10;;;;;;;5.30;4.63;;;22.20;60.60;;;;;;5012156;28;20026;-58
2023/09/12 12:27:40;;;;;;;5.35;4.53;;;22.20;60.80;;;;;;5013303;28;20045;-55
2023/09/12 12:30:10;;;;;;;5.07;4.50;;;22.20;60.40;;;;;;5012205;28;20029;-57
2023/09/12 12:32:40;;;;;;;5.10;4.55;;;22.20;60.40;;;;;;5013169;28;20053;-55
2023/09/12 12:35:07;;;;;;;6.82;4.63;;;22.20;60.10;;;;;;5012269;28;20498;-57